sensor_id;sensor_type;location;lat;lon;timestamp;temperature;humidity
19924;DHT22;10124;53.068;18.224;2023-02-01T01:06:05;3.30;99.90
19924;DHT22;10124;53.068;18.224;2023-02-01T01:11:11;3.30;99.90
19924;DHT22;10124;53.068;18.224;2023-02-01T01:13:39;3.30;99.90
19924;DHT22;10124;53.068;18.224;2023-02-01T01:16:08;3.20;99.90
19924;DHT22;10124;53.068;18.224;2023-02-01T01:23:34;3.10;99.90
19924;DHT22;10124;53.068;18.224;2023-02-01T01:26:07;3.10;99.90
19924;DHT22;10124;53.068;18.224;2023-02-01T01:35:59;3.10;99.90
19924;DHT22;10124;53.068;18.224;2023-02-01T01:50:54;3.10;99.90
19924;DHT22;10124;53.068;18.224;2023-02-01T01:53:28;3.10;99.90
19924;DHT22;10124;53.068;18.224;2023-02-01T01:58:27;3.20;99.90
19924;DHT22;10124;53.068;18.224;2023-02-01T02:03:32;3.10;99.90
19924;DHT22;10124;53.068;18.224;2023-02-01T02:06:02;3.10;99.90
19924;DHT22;10124;53.068;18.224;2023-02-01T02:11:00;3.20;99.90
19924;DHT22;10124;53.068;18.224;2023-02-01T02:13:38;3.10;99.90
19924;DHT22;10124;53.068;18.224;2023-02-01T02:33:39;3.20;99.90
19924;DHT22;10124;53.068;18.224;2023-02-01T02:36:17;3.20;99.90
19924;DHT22;10124;53.068;18.224;2023-02-01T02:50:27;3.30;99.90
19924;DHT22;10124;53.068;18.224;2023-02-01T02:53:19;3.40;99.90
19924;DHT22;10124;53.068;18.224;2023-02-01T02:56:08;3.40;99.90
19924;DHT22;10124;53.068;18.224;2023-02-01T02:58:56;3.50;99.90
19924;DHT22;10124;53.068;18.224;2023-02-01T03:07:12;3.50;99.90
19924;DHT22;10124;53.068;18.224;2023-02-01T03:09:41;3.60;99.90
19924;DHT22;10124;53.068;18.224;2023-02-01T03:12:13;3.50;99.90
19924;DHT22;10124;53.068;18.224;2023-02-01T03:15:07;3.50;99.90
19924;DHT22;10124;53.068;18.224;2023-02-01T03:17:39;3.50;99.90
19924;DHT22;10124;53.068;18.224;2023-02-01T03:27:57;3.80;99.90
19924;DHT22;10124;53.068;18.224;2023-02-01T06:02:16;3.80;1.00
19924;DHT22;10124;53.068;18.224;2023-02-01T07:08:57;4.10;1.00
19924;DHT22;10124;53.068;18.224;2023-02-01T07:31:16;3.90;1.00
19924;DHT22;10124;53.068;18.224;2023-02-01T08:18:38;4.80;1.00
19924;DHT22;10124;53.068;18.224;2023-02-01T08:53:50;4.90;1.00
19924;DHT22;10124;53.068;18.224;2023-02-01T08:56:19;4.90;1.00
19924;DHT22;10124;53.068;18.224;2023-02-01T09:01:15;4.80;1.00
19924;DHT22;10124;53.068;18.224;2023-02-01T09:46:54;5.00;1.00
19924;DHT22;10124;53.068;18.224;2023-02-01T09:59:51;5.10;1.00
19924;DHT22;10124;53.068;18.224;2023-02-01T10:02:24;5.30;1.00
19924;DHT22;10124;53.068;18.224;2023-02-01T10:07:51;5.40;1.00
19924;DHT22;10124;53.068;18.224;2023-02-01T10:26:27;5.70;1.00
19924;DHT22;10124;53.068;18.224;2023-02-01T10:29:03;5.90;1.00
19924;DHT22;10124;53.068;18.224;2023-02-01T10:31:36;5.90;1.00
19924;DHT22;10124;53.068;18.224;2023-02-01T10:34:31;7.20;1.00
19924;DHT22;10124;53.068;18.224;2023-02-01T10:37:26;5.70;1.00
19924;DHT22;10124;53.068;18.224;2023-02-01T10:39:56;5.70;1.00
19924;DHT22;10124;53.068;18.224;2023-02-01T10:42:27;5.50;1.00
19924;DHT22;10124;53.068;18.224;2023-02-01T10:44:58;5.70;1.00
19924;DHT22;10124;53.068;18.224;2023-02-01T10:47:26;5.80;1.00
19924;DHT22;10124;53.068;18.224;2023-02-01T10:52:46;6.00;1.00
19924;DHT22;10124;53.068;18.224;2023-02-01T10:55:28;6.20;1.00
19924;DHT22;10124;53.068;18.224;2023-02-01T10:58:02;6.20;1.00
19924;DHT22;10124;53.068;18.224;2023-02-01T11:00:39;6.10;1.00
19924;DHT22;10124;53.068;18.224;2023-02-01T11:03:38;5.90;1.00
19924;DHT22;10124;53.068;18.224;2023-02-01T11:06:39;5.80;1.00
19924;DHT22;10124;53.068;18.224;2023-02-01T11:14:27;5.90;1.00
19924;DHT22;10124;53.068;18.224;2023-02-01T11:17:01;5.80;1.00
19924;DHT22;10124;53.068;18.224;2023-02-01T11:19:30;5.70;1.00
19924;DHT22;10124;53.068;18.224;2023-02-01T11:21:59;5.60;1.00
19924;DHT22;10124;53.068;18.224;2023-02-01T11:24:31;5.60;1.00
19924;DHT22;10124;53.068;18.224;2023-02-01T11:27:02;5.60;1.00
19924;DHT22;10124;53.068;18.224;2023-02-01T11:29:38;5.70;1.00
19924;DHT22;10124;53.068;18.224;2023-02-01T11:32:08;5.60;1.00
19924;DHT22;10124;53.068;18.224;2023-02-01T11:34:46;5.60;1.00
19924;DHT22;10124;53.068;18.224;2023-02-01T11:37:25;5.50;1.00
19924;DHT22;10124;53.068;18.224;2023-02-01T11:39:59;5.60;1.00
19924;DHT22;10124;53.068;18.224;2023-02-01T11:42:28;5.60;1.00
19924;DHT22;10124;53.068;18.224;2023-02-01T11:45:19;5.70;1.00
19924;DHT22;10124;53.068;18.224;2023-02-01T11:47:52;5.80;1.00
19924;DHT22;10124;53.068;18.224;2023-02-01T11:50:30;5.80;1.00
19924;DHT22;10124;53.068;18.224;2023-02-01T11:53:09;5.90;1.00
19924;DHT22;10124;53.068;18.224;2023-02-01T11:55:48;6.10;1.00
19924;DHT22;10124;53.068;18.224;2023-02-01T12:01:26;6.20;1.00
19924;DHT22;10124;53.068;18.224;2023-02-01T12:06:50;6.00;1.00
19924;DHT22;10124;53.068;18.224;2023-02-01T12:10:24;6.00;1.00
19924;DHT22;10124;53.068;18.224;2023-02-01T12:12:26;6.00;1.00
19924;DHT22;10124;53.068;18.224;2023-02-01T12:18:22;6.60;1.00
19924;DHT22;10124;53.068;18.224;2023-02-01T12:26:26;9.00;1.00
19924;DHT22;10124;53.068;18.224;2023-02-01T12:34:50;7.10;1.00
19924;DHT22;10124;53.068;18.224;2023-02-01T12:37:45;6.60;1.00
19924;DHT22;10124;53.068;18.224;2023-02-01T12:46:26;5.90;1.00
19924;DHT22;10124;53.068;18.224;2023-02-01T12:48:58;5.80;1.00
19924;DHT22;10124;53.068;18.224;2023-02-01T12:51:33;5.70;1.00
19924;DHT22;10124;53.068;18.224;2023-02-01T12:54:12;5.70;1.00
19924;DHT22;10124;53.068;18.224;2023-02-01T12:56:49;5.70;1.00
19924;DHT22;10124;53.068;18.224;2023-02-01T12:59:50;5.70;1.00
19924;DHT22;10124;53.068;18.224;2023-02-01T13:05:04;5.70;1.00
19924;DHT22;10124;53.068;18.224;2023-02-01T13:07:41;5.60;1.00
19924;DHT22;10124;53.068;18.224;2023-02-01T13:13:19;5.60;1.00
19924;DHT22;10124;53.068;18.224;2023-02-01T13:15:51;5.50;1.00
19924;DHT22;10124;53.068;18.224;2023-02-01T13:18:26;5.50;1.00
19924;DHT22;10124;53.068;18.224;2023-02-01T13:21:08;5.40;1.00
19924;DHT22;10124;53.068;18.224;2023-02-01T13:23:39;5.50;1.00
19924;DHT22;10124;53.068;18.224;2023-02-01T13:26:07;5.40;1.00
19924;DHT22;10124;53.068;18.224;2023-02-01T13:28:51;5.40;1.00
19924;DHT22;10124;53.068;18.224;2023-02-01T13:31:51;5.40;1.00
19924;DHT22;10124;53.068;18.224;2023-02-01T13:40:19;5.40;1.00
19924;DHT22;10124;53.068;18.224;2023-02-01T13:42:52;5.40;1.00
19924;DHT22;10124;53.068;18.224;2023-02-01T13:45:23;5.30;1.00
19924;DHT22;10124;53.068;18.224;2023-02-01T13:47:56;5.30;1.00
19924;DHT22;10124;53.068;18.224;2023-02-01T13:50:30;5.30;1.00
19924;DHT22;10124;53.068;18.224;2023-02-01T13:53:11;5.30;1.00
19924;DHT22;10124;53.068;18.224;2023-02-01T14:00:50;5.50;1.00
19924;DHT22;10124;53.068;18.224;2023-02-01T14:03:23;5.40;1.00
19924;DHT22;10124;53.068;18.224;2023-02-01T14:06:42;5.40;1.00
19924;DHT22;10124;53.068;18.224;2023-02-01T14:09:12;5.40;1.00
19924;DHT22;10124;53.068;18.224;2023-02-01T14:16:44;5.30;1.00
19924;DHT22;10124;53.068;18.224;2023-02-01T14:19:29;5.40;1.00
19924;DHT22;10124;53.068;18.224;2023-02-01T14:22:31;6.10;1.00
19924;DHT22;10124;53.068;18.224;2023-02-01T14:24:55;5.30;1.00
19924;DHT22;10124;53.068;18.224;2023-02-01T14:27:29;5.20;1.00
19924;DHT22;10124;53.068;18.224;2023-02-01T14:29:59;5.10;1.00
19924;DHT22;10124;53.068;18.224;2023-02-01T14:32:34;5.10;1.00
19924;DHT22;10124;53.068;18.224;2023-02-01T14:35:26;5.10;1.00
19924;DHT22;10124;53.068;18.224;2023-02-01T14:37:59;5.20;1.00
19924;DHT22;10124;53.068;18.224;2023-02-01T14:40:30;5.10;1.00
19924;DHT22;10124;53.068;18.224;2023-02-01T14:42:58;5.10;1.00
19924;DHT22;10124;53.068;18.224;2023-02-01T14:50:38;5.10;1.00
19924;DHT22;10124;53.068;18.224;2023-02-01T15:01:33;5.00;1.00
19924;DHT22;10124;53.068;18.224;2023-02-01T15:04:11;5.00;1.00
19924;DHT22;10124;53.068;18.224;2023-02-01T15:06:54;5.00;1.00
19924;DHT22;10124;53.068;18.224;2023-02-01T15:09:33;5.10;1.00
19924;DHT22;10124;53.068;18.224;2023-02-01T15:14:41;5.00;1.00
19924;DHT22;10124;53.068;18.224;2023-02-01T15:19:55;5.00;1.00
19924;DHT22;10124;53.068;18.224;2023-02-01T15:22:24;4.90;1.00
19924;DHT22;10124;53.068;18.224;2023-02-01T15:24:59;4.90;1.00
19924;DHT22;10124;53.068;18.224;2023-02-01T15:27:28;4.80;1.00
19924;DHT22;10124;53.068;18.224;2023-02-01T15:30:20;4.80;1.00
19924;DHT22;10124;53.068;18.224;2023-02-01T15:32:49;4.70;1.00
19924;DHT22;10124;53.068;18.224;2023-02-01T15:35:41;4.70;1.00
19924;DHT22;10124;53.068;18.224;2023-02-01T15:41:17;4.70;1.00
19924;DHT22;10124;53.068;18.224;2023-02-01T15:44:02;4.80;1.00
19924;DHT22;10124;53.068;18.224;2023-02-01T15:46:40;4.70;1.00
19924;DHT22;10124;53.068;18.224;2023-02-01T15:49:19;4.70;1.00
19924;DHT22;10124;53.068;18.224;2023-02-01T15:51:48;4.90;1.00
19924;DHT22;10124;53.068;18.224;2023-02-01T15:54:24;4.60;1.00
19924;DHT22;10124;53.068;18.224;2023-02-01T15:56:54;4.60;1.00
19924;DHT22;10124;53.068;18.224;2023-02-01T15:59:31;4.50;1.00
19924;DHT22;10124;53.068;18.224;2023-02-01T16:02:00;4.40;1.00
19924;DHT22;10124;53.068;18.224;2023-02-01T16:04:29;4.30;1.00
19924;DHT22;10124;53.068;18.224;2023-02-01T16:07:01;4.20;1.00
19924;DHT22;10124;53.068;18.224;2023-02-01T16:09:38;4.20;1.00
19924;DHT22;10124;53.068;18.224;2023-02-01T16:14:54;4.10;1.00
19924;DHT22;10124;53.068;18.224;2023-02-01T16:17:22;4.10;1.00
19924;DHT22;10124;53.068;18.224;2023-02-01T16:19:50;4.10;1.00
19924;DHT22;10124;53.068;18.224;2023-02-01T16:22:18;4.10;1.00
19924;DHT22;10124;53.068;18.224;2023-02-01T16:24:45;4.10;1.00
19924;DHT22;10124;53.068;18.224;2023-02-01T16:27:13;4.10;1.00
19924;DHT22;10124;53.068;18.224;2023-02-01T16:29:40;4.10;1.00
19924;DHT22;10124;53.068;18.224;2023-02-01T16:32:27;4.20;1.00
19924;DHT22;10124;53.068;18.224;2023-02-01T16:34:56;4.50;1.00
19924;DHT22;10124;53.068;18.224;2023-02-01T16:37:25;4.10;1.00
19924;DHT22;10124;53.068;18.224;2023-02-01T16:39:54;4.10;1.00
19924;DHT22;10124;53.068;18.224;2023-02-01T16:42:22;3.90;1.00
19924;DHT22;10124;53.068;18.224;2023-02-01T16:44:49;4.00;1.00
19924;DHT22;10124;53.068;18.224;2023-02-01T16:47:21;5.20;1.00
19924;DHT22;10124;53.068;18.224;2023-02-01T16:49:50;3.80;1.00
19924;DHT22;10124;53.068;18.224;2023-02-01T16:52:23;4.00;1.00
19924;DHT22;10124;53.068;18.224;2023-02-01T16:54:51;4.00;1.00
19924;DHT22;10124;53.068;18.224;2023-02-01T16:57:20;3.90;1.00
19924;DHT22;10124;53.068;18.224;2023-02-01T16:59:51;3.90;1.00
19924;DHT22;10124;53.068;18.224;2023-02-01T17:02:19;3.80;1.00
19924;DHT22;10124;53.068;18.224;2023-02-01T17:04:48;3.90;1.00
19924;DHT22;10124;53.068;18.224;2023-02-01T17:07:17;3.90;1.00
19924;DHT22;10124;53.068;18.224;2023-02-01T17:09:47;6.00;1.00
19924;DHT22;10124;53.068;18.224;2023-02-01T17:12:25;4.00;1.00
19924;DHT22;10124;53.068;18.224;2023-02-01T17:14:54;4.00;1.00
19924;DHT22;10124;53.068;18.224;2023-02-01T17:17:32;3.90;1.00
19924;DHT22;10124;53.068;18.224;2023-02-01T17:20:06;3.90;1.00
19924;DHT22;10124;53.068;18.224;2023-02-01T17:22:34;3.80;1.00
19924;DHT22;10124;53.068;18.224;2023-02-01T17:25:06;3.90;1.00
19924;DHT22;10124;53.068;18.224;2023-02-01T17:27:35;3.80;1.00
19924;DHT22;10124;53.068;18.224;2023-02-01T17:30:05;3.80;1.00
19924;DHT22;10124;53.068;18.224;2023-02-01T17:32:33;3.80;1.00
19924;DHT22;10124;53.068;18.224;2023-02-01T17:35:01;5.80;1.00
19924;DHT22;10124;53.068;18.224;2023-02-01T17:37:33;3.70;1.00
19924;DHT22;10124;53.068;18.224;2023-02-01T17:40:05;3.60;1.00
19924;DHT22;10124;53.068;18.224;2023-02-01T17:42:34;3.60;1.00
19924;DHT22;10124;53.068;18.224;2023-02-01T17:45:32;3.50;1.00
19924;DHT22;10124;53.068;18.224;2023-02-01T17:48:05;3.40;1.00
19924;DHT22;10124;53.068;18.224;2023-02-01T17:50:36;3.40;1.00
19924;DHT22;10124;53.068;18.224;2023-02-01T17:53:05;3.40;1.00
19924;DHT22;10124;53.068;18.224;2023-02-01T17:55:40;3.40;1.00
19924;DHT22;10124;53.068;18.224;2023-02-01T17:58:13;3.40;1.00
19924;DHT22;10124;53.068;18.224;2023-02-01T18:00:42;3.40;1.00
19924;DHT22;10124;53.068;18.224;2023-02-01T18:03:22;3.40;1.00
19924;DHT22;10124;53.068;18.224;2023-02-01T18:05:51;3.40;1.00
19924;DHT22;10124;53.068;18.224;2023-02-01T18:08:21;3.40;1.00
19924;DHT22;10124;53.068;18.224;2023-02-01T18:10:51;3.50;1.00
19924;DHT22;10124;53.068;18.224;2023-02-01T18:13:21;3.50;1.00
19924;DHT22;10124;53.068;18.224;2023-02-01T18:15:49;3.40;1.00
19924;DHT22;10124;53.068;18.224;2023-02-01T18:18:16;3.50;1.00
19924;DHT22;10124;53.068;18.224;2023-02-01T18:20:45;3.90;1.00
19924;DHT22;10124;53.068;18.224;2023-02-01T18:23:19;3.40;1.00
19924;DHT22;10124;53.068;18.224;2023-02-01T18:25:47;3.40;1.00
19924;DHT22;10124;53.068;18.224;2023-02-01T18:28:16;3.30;1.00
19924;DHT22;10124;53.068;18.224;2023-02-01T18:30:46;3.20;1.00
19924;DHT22;10124;53.068;18.224;2023-02-01T18:33:17;3.30;1.00
19924;DHT22;10124;53.068;18.224;2023-02-01T18:35:45;3.20;1.00
19924;DHT22;10124;53.068;18.224;2023-02-01T18:38:14;3.20;1.00
19924;DHT22;10124;53.068;18.224;2023-02-01T18:40:53;3.10;1.00
19924;DHT22;10124;53.068;18.224;2023-02-01T18:43:25;3.20;1.00
19924;DHT22;10124;53.068;18.224;2023-02-01T18:45:54;3.10;1.00
19924;DHT22;10124;53.068;18.224;2023-02-01T18:48:22;3.10;1.00
19924;DHT22;10124;53.068;18.224;2023-02-01T18:50:51;3.10;1.00
19924;DHT22;10124;53.068;18.224;2023-02-01T18:53:24;3.00;1.00
19924;DHT22;10124;53.068;18.224;2023-02-01T18:55:55;3.90;1.00
19924;DHT22;10124;53.068;18.224;2023-02-01T18:58:23;3.40;1.00
19924;DHT22;10124;53.068;18.224;2023-02-01T19:00:56;3.20;1.00
19924;DHT22;10124;53.068;18.224;2023-02-01T19:03:24;3.20;1.00
19924;DHT22;10124;53.068;18.224;2023-02-01T19:05:56;3.30;1.00
19924;DHT22;10124;53.068;18.224;2023-02-01T19:08:24;3.30;1.00
19924;DHT22;10124;53.068;18.224;2023-02-01T19:10:53;3.30;1.00
19924;DHT22;10124;53.068;18.224;2023-02-01T19:13:21;3.30;1.00
19924;DHT22;10124;53.068;18.224;2023-02-01T19:15:50;3.30;1.00
19924;DHT22;10124;53.068;18.224;2023-02-01T19:18:18;3.30;1.00
19924;DHT22;10124;53.068;18.224;2023-02-01T19:20:47;3.30;1.00
19924;DHT22;10124;53.068;18.224;2023-02-01T19:23:18;3.30;1.00
19924;DHT22;10124;53.068;18.224;2023-02-01T19:25:47;3.30;2.10
19924;DHT22;10124;53.068;18.224;2023-02-01T19:28:15;3.30;13.90
19924;DHT22;10124;53.068;18.224;2023-02-01T19:30:42;3.30;22.60
19924;DHT22;10124;53.068;18.224;2023-02-01T19:33:11;3.20;31.60
19924;DHT22;10124;53.068;18.224;2023-02-01T19:35:39;3.30;43.00
19924;DHT22;10124;53.068;18.224;2023-02-01T19:38:07;3.30;64.30
19924;DHT22;10124;53.068;18.224;2023-02-01T19:40:35;3.20;94.60
19924;DHT22;10124;53.068;18.224;2023-02-01T19:43:03;3.20;99.90
19924;DHT22;10124;53.068;18.224;2023-02-01T19:45:30;3.20;99.90
19924;DHT22;10124;53.068;18.224;2023-02-01T19:47:58;3.20;99.90
19924;DHT22;10124;53.068;18.224;2023-02-01T19:50:29;4.60;99.90
19924;DHT22;10124;53.068;18.224;2023-02-01T19:52:57;3.20;99.90
19924;DHT22;10124;53.068;18.224;2023-02-01T19:55:25;3.20;99.90
19924;DHT22;10124;53.068;18.224;2023-02-01T19:57:54;3.20;99.90
19924;DHT22;10124;53.068;18.224;2023-02-01T20:00:21;3.30;99.90
19924;DHT22;10124;53.068;18.224;2023-02-01T20:02:50;3.30;99.90
19924;DHT22;10124;53.068;18.224;2023-02-01T20:05:18;3.20;99.90
19924;DHT22;10124;53.068;18.224;2023-02-01T20:07:46;3.20;99.90
19924;DHT22;10124;53.068;18.224;2023-02-01T20:10:13;3.20;99.90
19924;DHT22;10124;53.068;18.224;2023-02-01T20:12:42;3.30;99.90
19924;DHT22;10124;53.068;18.224;2023-02-01T20:15:11;3.30;99.90
19924;DHT22;10124;53.068;18.224;2023-02-01T20:17:39;3.20;99.90
19924;DHT22;10124;53.068;18.224;2023-02-01T20:20:07;3.30;99.90
19924;DHT22;10124;53.068;18.224;2023-02-01T20:22:35;3.30;99.90
19924;DHT22;10124;53.068;18.224;2023-02-01T20:25:02;3.30;99.90
19924;DHT22;10124;53.068;18.224;2023-02-01T20:27:32;3.20;99.90
19924;DHT22;10124;53.068;18.224;2023-02-01T20:30:00;3.30;99.90
19924;DHT22;10124;53.068;18.224;2023-02-01T20:32:27;3.40;99.90
19924;DHT22;10124;53.068;18.224;2023-02-01T20:34:55;3.30;99.90
19924;DHT22;10124;53.068;18.224;2023-02-01T20:37:23;3.30;99.90
19924;DHT22;10124;53.068;18.224;2023-02-01T20:39:51;3.40;99.90
19924;DHT22;10124;53.068;18.224;2023-02-01T20:42:19;3.30;99.90
19924;DHT22;10124;53.068;18.224;2023-02-01T20:44:46;3.40;99.90
19924;DHT22;10124;53.068;18.224;2023-02-01T20:47:15;3.30;99.90
19924;DHT22;10124;53.068;18.224;2023-02-01T20:49:42;3.30;99.90
19924;DHT22;10124;53.068;18.224;2023-02-01T20:52:11;3.30;99.90
19924;DHT22;10124;53.068;18.224;2023-02-01T20:54:39;3.30;99.90
19924;DHT22;10124;53.068;18.224;2023-02-01T20:57:07;3.40;99.90
19924;DHT22;10124;53.068;18.224;2023-02-01T20:59:35;3.30;99.90
19924;DHT22;10124;53.068;18.224;2023-02-01T21:02:03;3.30;99.90
19924;DHT22;10124;53.068;18.224;2023-02-01T21:04:31;3.30;1.00
19924;DHT22;10124;53.068;18.224;2023-02-01T21:07:00;3.30;1.00
19924;DHT22;10124;53.068;18.224;2023-02-01T21:09:29;3.30;1.00
19924;DHT22;10124;53.068;18.224;2023-02-01T21:11:57;3.30;99.90
19924;DHT22;10124;53.068;18.224;2023-02-01T21:14:25;3.40;99.90
19924;DHT22;10124;53.068;18.224;2023-02-01T21:16:53;3.30;99.90
19924;DHT22;10124;53.068;18.224;2023-02-01T21:19:20;3.30;99.90
19924;DHT22;10124;53.068;18.224;2023-02-01T21:21:53;3.40;99.90
19924;DHT22;10124;53.068;18.224;2023-02-01T21:24:20;3.40;1.00
19924;DHT22;10124;53.068;18.224;2023-02-01T21:26:48;3.40;1.00
19924;DHT22;10124;53.068;18.224;2023-02-01T21:29:16;3.40;1.00
19924;DHT22;10124;53.068;18.224;2023-02-01T21:31:44;3.40;99.90
19924;DHT22;10124;53.068;18.224;2023-02-01T21:34:12;3.40;99.90
19924;DHT22;10124;53.068;18.224;2023-02-01T21:36:40;3.30;99.90
19924;DHT22;10124;53.068;18.224;2023-02-01T21:39:08;3.40;1.00
19924;DHT22;10124;53.068;18.224;2023-02-01T21:41:37;3.40;99.90
19924;DHT22;10124;53.068;18.224;2023-02-01T21:44:23;3.30;1.00
19924;DHT22;10124;53.068;18.224;2023-02-01T21:46:51;3.40;1.00
19924;DHT22;10124;53.068;18.224;2023-02-01T21:49:19;3.40;1.00
19924;DHT22;10124;53.068;18.224;2023-02-01T21:51:46;3.40;1.00
19924;DHT22;10124;53.068;18.224;2023-02-01T21:54:14;3.50;99.90
19924;DHT22;10124;53.068;18.224;2023-02-01T21:56:43;3.40;99.90
19924;DHT22;10124;53.068;18.224;2023-02-01T21:59:11;3.40;1.00
19924;DHT22;10124;53.068;18.224;2023-02-01T22:01:40;3.40;1.00
19924;DHT22;10124;53.068;18.224;2023-02-01T22:04:08;3.50;1.00
19924;DHT22;10124;53.068;18.224;2023-02-01T22:06:39;3.50;1.00
19924;DHT22;10124;53.068;18.224;2023-02-01T22:09:20;3.40;1.00
19924;DHT22;10124;53.068;18.224;2023-02-01T22:11:49;3.50;1.00
19924;DHT22;10124;53.068;18.224;2023-02-01T22:14:17;3.50;1.00
19924;DHT22;10124;53.068;18.224;2023-02-01T22:16:46;3.50;1.00
19924;DHT22;10124;53.068;18.224;2023-02-01T22:19:14;3.50;1.00
19924;DHT22;10124;53.068;18.224;2023-02-01T22:21:43;3.50;99.90
19924;DHT22;10124;53.068;18.224;2023-02-01T22:24:14;3.50;99.90
19924;DHT22;10124;53.068;18.224;2023-02-01T22:26:43;3.50;1.00
19924;DHT22;10124;53.068;18.224;2023-02-01T22:29:14;3.50;1.00
19924;DHT22;10124;53.068;18.224;2023-02-01T22:31:44;3.50;1.00
19924;DHT22;10124;53.068;18.224;2023-02-01T22:34:12;3.60;1.00
19924;DHT22;10124;53.068;18.224;2023-02-01T22:36:39;3.50;99.90
19924;DHT22;10124;53.068;18.224;2023-02-01T22:39:07;3.40;1.00
19924;DHT22;10124;53.068;18.224;2023-02-01T22:41:35;3.50;1.00
19924;DHT22;10124;53.068;18.224;2023-02-01T22:44:04;3.40;1.00
19924;DHT22;10124;53.068;18.224;2023-02-01T22:46:33;3.40;99.90
19924;DHT22;10124;53.068;18.224;2023-02-01T22:49:01;3.30;1.00
19924;DHT22;10124;53.068;18.224;2023-02-01T22:51:31;3.30;99.90
19924;DHT22;10124;53.068;18.224;2023-02-01T22:53:59;3.30;1.00
19924;DHT22;10124;53.068;18.224;2023-02-01T22:56:35;3.30;1.00
19924;DHT22;10124;53.068;18.224;2023-02-01T22:59:06;3.30;99.90
19924;DHT22;10124;53.068;18.224;2023-02-01T23:01:34;3.30;99.90
19924;DHT22;10124;53.068;18.224;2023-02-01T23:04:04;3.30;1.00
19924;DHT22;10124;53.068;18.224;2023-02-01T23:06:33;3.30;99.90
19924;DHT22;10124;53.068;18.224;2023-02-01T23:09:08;3.30;1.00
19924;DHT22;10124;53.068;18.224;2023-02-01T23:11:40;3.40;1.00
19924;DHT22;10124;53.068;18.224;2023-02-01T23:14:08;3.40;99.90
19924;DHT22;10124;53.068;18.224;2023-02-01T23:16:37;3.30;99.90
19924;DHT22;10124;53.068;18.224;2023-02-01T23:19:05;3.30;99.90
19924;DHT22;10124;53.068;18.224;2023-02-01T23:21:33;3.30;99.90
19924;DHT22;10124;53.068;18.224;2023-02-01T23:24:02;3.40;99.90
19924;DHT22;10124;53.068;18.224;2023-02-01T23:26:31;3.50;99.90
19924;DHT22;10124;53.068;18.224;2023-02-01T23:28:59;3.40;99.90
19924;DHT22;10124;53.068;18.224;2023-02-01T23:31:29;3.40;99.90
19924;DHT22;10124;53.068;18.224;2023-02-01T23:33:58;3.50;99.90
19924;DHT22;10124;53.068;18.224;2023-02-01T23:36:28;3.40;99.90
19924;DHT22;10124;53.068;18.224;2023-02-01T23:38:55;3.40;99.90
19924;DHT22;10124;53.068;18.224;2023-02-01T23:41:24;3.50;99.90
19924;DHT22;10124;53.068;18.224;2023-02-01T23:43:53;3.50;99.90
19924;DHT22;10124;53.068;18.224;2023-02-01T23:46:38;3.50;99.90
19924;DHT22;10124;53.068;18.224;2023-02-01T23:49:08;3.60;99.90
19924;DHT22;10124;53.068;18.224;2023-02-01T23:51:36;3.60;99.90
19924;DHT22;10124;53.068;18.224;2023-02-01T23:54:05;4.90;99.90
19924;DHT22;10124;53.068;18.224;2023-02-01T23:56:38;3.70;99.90
19924;DHT22;10124;53.068;18.224;2023-02-01T23:59:11;3.80;1.00
